Terminal Aerodrome Forecast
Issued by NWS Wilmington, OH

Current Version | Previous Version | Graphics & Text | Print | Product List | Glossary On
Versions: 1 2 3 4 5 6 7 8 9 10 11 12 13 14 15 16 17 18 19 20 21 22 23 24 25 26 27 28 29 30 31 32 33 34 35
000
FTUS41 KILN 232200 AAB
TAFCVG
TAF AMD
KCVG 232226Z 2322/2424 14012G18KT 4SM -SHRA BR OVC025
      TEMPO 2322/2324 2SM SHRA BR OVC015
     FM240100 16012G20KT 5SM -SHRA BR OVC012
     FM240300 19014G22KT P6SM VCSH OVC006
     FM240800 20014G24KT P6SM VCSH BKN012
     FM241500 22020G36KT P6SM -SHRA FEW010 BKN025
     FM241800 24020G32KT P6SM BKN020=

USA.gov is the U.S. government's official web portal to all federal, state and local government web resources and services.